sensor_id;sensor_type;location;lat;lon;timestamp;pressure;altitude;pressure_sealevel;temperature;humidity
69221;BME280;56331;51.992;20.910;2023-06-26T00:01:04;100173.94;;;25.28;46.82
69221;BME280;56331;51.992;20.910;2023-06-26T00:03:33;100174.53;;;25.28;46.87
69221;BME280;56331;51.992;20.910;2023-06-26T00:06:00;100177.70;;;25.26;46.53
69221;BME280;56331;51.992;20.910;2023-06-26T00:08:27;100172.55;;;25.28;46.33
69221;BME280;56331;51.992;20.910;2023-06-26T00:10:54;100176.73;;;25.28;46.06
69221;BME280;56331;51.992;20.910;2023-06-26T00:13:22;100181.50;;;25.28;45.91
69221;BME280;56331;51.992;20.910;2023-06-26T00:15:50;100177.55;;;25.29;45.83
69221;BME280;56331;51.992;20.910;2023-06-26T00:18:16;100176.37;;;25.30;45.78
69221;BME280;56331;51.992;20.910;2023-06-26T00:23:23;100176.58;;;25.31;45.66
69221;BME280;56331;51.992;20.910;2023-06-26T00:25:50;100175.77;;;25.30;45.51
69221;BME280;56331;51.992;20.910;2023-06-26T00:28:16;100177.41;;;25.31;45.52
69221;BME280;56331;51.992;20.910;2023-06-26T00:30:43;100177.97;;;25.31;45.43
69221;BME280;56331;51.992;20.910;2023-06-26T00:33:10;100181.59;;;25.31;45.40
69221;BME280;56331;51.992;20.910;2023-06-26T00:35:36;100184.38;;;25.31;45.40
69221;BME280;56331;51.992;20.910;2023-06-26T00:38:02;100183.55;;;25.31;45.44
69221;BME280;56331;51.992;20.910;2023-06-26T00:40:29;100180.19;;;25.31;45.30
69221;BME280;56331;51.992;20.910;2023-06-26T00:42:56;100171.59;;;25.30;45.28
69221;BME280;56331;51.992;20.910;2023-06-26T00:45:25;100177.41;;;25.31;45.23
69221;BME280;56331;51.992;20.910;2023-06-26T00:47:51;100177.41;;;25.31;45.23
69221;BME280;56331;51.992;20.910;2023-06-26T00:50:18;100177.41;;;25.31;45.09
69221;BME280;56331;51.992;20.910;2023-06-26T00:52:45;100175.77;;;25.30;45.02
69221;BME280;56331;51.992;20.910;2023-06-26T00:55:12;100176.02;;;25.31;44.94
69221;BME280;56331;51.992;20.910;2023-06-26T00:57:39;100173.79;;;25.31;44.92
69221;BME280;56331;51.992;20.910;2023-06-26T01:00:06;100173.22;;;25.31;44.88
69221;BME280;56331;51.992;20.910;2023-06-26T01:02:33;100172.19;;;25.30;44.77
69221;BME280;56331;51.992;20.910;2023-06-26T01:05:01;100166.41;;;25.29;44.80
69221;BME280;56331;51.992;20.910;2023-06-26T01:07:31;100161.83;;;25.30;44.87
69221;BME280;56331;51.992;20.910;2023-06-26T01:09:58;100169.40;;;25.30;44.73
69221;BME280;56331;51.992;20.910;2023-06-26T01:12:25;100161.83;;;25.30;44.74
69221;BME280;56331;51.992;20.910;2023-06-26T01:14:51;100160.83;;;25.29;44.55
69221;BME280;56331;51.992;20.910;2023-06-26T01:17:19;100164.41;;;25.29;44.62
69221;BME280;56331;51.992;20.910;2023-06-26T01:19:46;100164.41;;;25.29;44.41
69221;BME280;56331;51.992;20.910;2023-06-26T01:22:31;100163.62;;;25.29;44.49
69221;BME280;56331;51.992;20.910;2023-06-26T01:27:46;100160.59;;;25.28;44.42
69221;BME280;56331;51.992;20.910;2023-06-26T01:30:13;100154.42;;;25.28;44.38
69221;BME280;56331;51.992;20.910;2023-06-26T01:32:40;100153.86;;;25.29;44.32
69221;BME280;56331;51.992;20.910;2023-06-26T01:35:08;100153.86;;;25.29;44.30
69221;BME280;56331;51.992;20.910;2023-06-26T01:37:36;100152.23;;;25.28;44.23
69221;BME280;56331;51.992;20.910;2023-06-26T01:40:02;100150.23;;;25.28;44.12
69221;BME280;56331;51.992;20.910;2023-06-26T01:42:34;100148.05;;;25.28;44.04
69221;BME280;56331;51.992;20.910;2023-06-26T01:45:27;100145.84;;;25.27;44.24
69221;BME280;56331;51.992;20.910;2023-06-26T01:47:34;100143.06;;;25.27;44.22
69221;BME280;56331;51.992;20.910;2023-06-26T01:50:11;100141.67;;;25.27;44.00
69221;BME280;56331;51.992;20.910;2023-06-26T01:58:08;100138.87;;;25.27;44.33
69221;BME280;56331;51.992;20.910;2023-06-26T02:00:36;100138.87;;;25.27;44.33
69221;BME280;56331;51.992;20.910;2023-06-26T02:03:03;100138.67;;;25.26;43.76
69221;BME280;56331;51.992;20.910;2023-06-26T02:05:31;100141.46;;;25.26;43.83
69221;BME280;56331;51.992;20.910;2023-06-26T02:07:58;100138.08;;;25.27;43.75
69221;BME280;56331;51.992;20.910;2023-06-26T02:10:24;100141.46;;;25.26;43.76
69221;BME280;56331;51.992;20.910;2023-06-26T02:12:51;100136.45;;;25.26;43.69
69221;BME280;56331;51.992;20.910;2023-06-26T02:15:20;100136.45;;;25.26;43.65
69221;BME280;56331;51.992;20.910;2023-06-26T02:17:48;100136.69;;;25.27;43.52
69221;BME280;56331;51.992;20.910;2023-06-26T02:20:15;100134.49;;;25.26;43.80
69221;BME280;56331;51.992;20.910;2023-06-26T02:22:41;100134.49;;;25.26;43.59
69221;BME280;56331;51.992;20.910;2023-06-26T02:25:10;100130.31;;;25.26;43.50
69221;BME280;56331;51.992;20.910;2023-06-26T02:27:38;100126.13;;;25.26;43.56
69221;BME280;56331;51.992;20.910;2023-06-26T02:30:05;100125.30;;;25.26;43.55
69221;BME280;56331;51.992;20.910;2023-06-26T02:32:32;100125.30;;;25.26;43.43
69221;BME280;56331;51.992;20.910;2023-06-26T02:34:58;100118.33;;;25.26;43.53
69221;BME280;56331;51.992;20.910;2023-06-26T02:37:25;100124.50;;;25.25;43.54
69221;BME280;56331;51.992;20.910;2023-06-26T02:39:51;100129.87;;;25.24;43.31
69221;BME280;56331;51.992;20.910;2023-06-26T02:42:18;100129.27;;;25.25;43.23
69221;BME280;56331;51.992;20.910;2023-06-26T02:44:44;100125.09;;;25.25;43.09
69221;BME280;56331;51.992;20.910;2023-06-26T02:47:11;100128.47;;;25.24;43.09
69221;BME280;56331;51.992;20.910;2023-06-26T02:49:37;100130.08;;;25.25;43.03
69221;BME280;56331;51.992;20.910;2023-06-26T02:52:04;100126.48;;;25.25;43.18
69221;BME280;56331;51.992;20.910;2023-06-26T02:54:30;100125.69;;;25.24;42.92
69221;BME280;56331;51.992;20.910;2023-06-26T02:56:56;100125.89;;;25.25;42.93
69221;BME280;56331;51.992;20.910;2023-06-26T02:59:23;100125.09;;;25.25;42.82
69221;BME280;56331;51.992;20.910;2023-06-26T03:01:50;100127.08;;;25.24;42.87
69221;BME280;56331;51.992;20.910;2023-06-26T03:04:17;100124.88;;;25.24;43.07
69221;BME280;56331;51.992;20.910;2023-06-26T03:06:44;100122.66;;;25.23;43.10
69221;BME280;56331;51.992;20.910;2023-06-26T03:09:10;100121.86;;;25.23;43.18
69221;BME280;56331;51.992;20.910;2023-06-26T03:11:37;100126.43;;;25.21;43.23
69221;BME280;56331;51.992;20.910;2023-06-26T03:14:03;100124.20;;;25.21;43.36
69221;BME280;56331;51.992;20.910;2023-06-26T03:16:30;100119.02;;;25.19;43.44
69221;BME280;56331;51.992;20.910;2023-06-26T03:18:57;100125.39;;;25.20;43.62
69221;BME280;56331;51.992;20.910;2023-06-26T03:21:23;100124.59;;;25.19;43.65
69221;BME280;56331;51.992;20.910;2023-06-26T03:23:50;100123.80;;;25.19;43.73
69221;BME280;56331;51.992;20.910;2023-06-26T03:26:16;100122.96;;;25.18;43.76
69221;BME280;56331;51.992;20.910;2023-06-26T03:28:43;100120.17;;;25.18;43.76
69221;BME280;56331;51.992;20.910;2023-06-26T03:31:09;100122.96;;;25.18;43.89
69221;BME280;56331;51.992;20.910;2023-06-26T03:33:37;100122.16;;;25.18;43.91
69221;BME280;56331;51.992;20.910;2023-06-26T03:36:04;100123.55;;;25.18;43.92
69221;BME280;56331;51.992;20.910;2023-06-26T03:38:32;100119.97;;;25.17;43.99
69221;BME280;56331;51.992;20.910;2023-06-26T03:40:58;100119.97;;;25.17;44.02
69221;BME280;56331;51.992;20.910;2023-06-26T03:43:25;100119.38;;;25.18;44.02
69221;BME280;56331;51.992;20.910;2023-06-26T03:45:51;100122.96;;;25.18;44.05
69221;BME280;56331;51.992;20.910;2023-06-26T03:48:18;100121.56;;;25.18;44.08
69221;BME280;56331;51.992;20.910;2023-06-26T03:50:45;100122.75;;;25.17;44.13
69221;BME280;56331;51.992;20.910;2023-06-26T03:53:11;100124.15;;;25.17;44.15
69221;BME280;56331;51.992;20.910;2023-06-26T03:55:37;100119.16;;;25.17;44.20
69221;BME280;56331;51.992;20.910;2023-06-26T03:58:04;100123.55;;;25.18;44.29
69221;BME280;56331;51.992;20.910;2023-06-26T04:00:31;100121.36;;;25.17;44.28
69221;BME280;56331;51.992;20.910;2023-06-26T04:02:58;100128.33;;;25.17;44.44
69221;BME280;56331;51.992;20.910;2023-06-26T04:05:25;100127.53;;;25.17;44.41
69221;BME280;56331;51.992;20.910;2023-06-26T04:07:52;100127.30;;;25.16;44.46
69221;BME280;56331;51.992;20.910;2023-06-26T04:10:18;100130.08;;;25.16;44.58
69221;BME280;56331;51.992;20.910;2023-06-26T04:12:47;100132.87;;;25.16;44.69
69221;BME280;56331;51.992;20.910;2023-06-26T04:15:14;100129.25;;;25.15;44.69
69221;BME280;56331;51.992;20.910;2023-06-26T04:17:43;100133.42;;;25.15;44.75
69221;BME280;56331;51.992;20.910;2023-06-26T04:20:10;100134.82;;;25.15;44.81
69221;BME280;56331;51.992;20.910;2023-06-26T04:22:37;100131.23;;;25.15;44.84
69221;BME280;56331;51.992;20.910;2023-06-26T04:25:04;100135.41;;;25.15;44.90
69221;BME280;56331;51.992;20.910;2023-06-26T04:27:30;100133.22;;;25.14;45.02
69221;BME280;56331;51.992;20.910;2023-06-26T04:29:57;100131.83;;;25.14;44.96
69221;BME280;56331;51.992;20.910;2023-06-26T04:32:23;100136.01;;;25.14;45.02
69221;BME280;56331;51.992;20.910;2023-06-26T04:34:50;100137.41;;;25.14;45.05
69221;BME280;56331;51.992;20.910;2023-06-26T04:37:16;100140.19;;;25.14;45.13
69221;BME280;56331;51.992;20.910;2023-06-26T04:39:43;100134.62;;;25.14;45.14
69221;BME280;56331;51.992;20.910;2023-06-26T04:42:10;100132.42;;;25.14;45.16
69221;BME280;56331;51.992;20.910;2023-06-26T04:44:38;100136.37;;;25.13;45.22
69221;BME280;56331;51.992;20.910;2023-06-26T04:47:04;100132.42;;;25.14;45.22
69221;BME280;56331;51.992;20.910;2023-06-26T04:49:31;100131.03;;;25.14;45.27
69221;BME280;56331;51.992;20.910;2023-06-26T04:51:57;100128.80;;;25.13;45.29
69221;BME280;56331;51.992;20.910;2023-06-26T04:54:25;100126.41;;;25.11;45.42
69221;BME280;56331;51.992;20.910;2023-06-26T04:56:52;100128.59;;;25.12;45.43
69221;BME280;56331;51.992;20.910;2023-06-26T04:59:19;100127.80;;;25.11;45.48
69221;BME280;56331;51.992;20.910;2023-06-26T05:01:45;100132.19;;;25.13;45.56
69221;BME280;56331;51.992;20.910;2023-06-26T05:04:15;100125.60;;;25.11;45.56
69221;BME280;56331;51.992;20.910;2023-06-26T05:06:42;100125.60;;;25.11;45.61
69221;BME280;56331;51.992;20.910;2023-06-26T05:09:08;100129.19;;;25.11;45.56
69221;BME280;56331;51.992;20.910;2023-06-26T05:11:34;100133.13;;;25.10;45.59
69221;BME280;56331;51.992;20.910;2023-06-26T05:14:01;100131.38;;;25.12;45.62
69221;BME280;56331;51.992;20.910;2023-06-26T05:16:27;100128.59;;;25.12;45.71
69221;BME280;56331;51.992;20.910;2023-06-26T05:18:54;100128.95;;;25.10;45.88
69221;BME280;56331;51.992;20.910;2023-06-26T05:21:21;100131.38;;;25.12;45.97
69221;BME280;56331;51.992;20.910;2023-06-26T05:23:47;100121.98;;;25.10;46.06
69221;BME280;56331;51.992;20.910;2023-06-26T05:26:15;100132.57;;;25.11;46.06
69221;BME280;56331;51.992;20.910;2023-06-26T05:28:59;100123.38;;;25.10;46.13
69221;BME280;56331;51.992;20.910;2023-06-26T05:31:26;100119.44;;;25.11;46.20
69221;BME280;56331;51.992;20.910;2023-06-26T05:33:55;100120.59;;;25.10;46.21
69221;BME280;56331;51.992;20.910;2023-06-26T05:36:22;100123.97;;;25.10;46.35
69221;BME280;56331;51.992;20.910;2023-06-26T05:38:50;100121.42;;;25.11;46.39
69221;BME280;56331;51.992;20.910;2023-06-26T05:41:17;100118.40;;;25.10;46.54
69221;BME280;56331;51.992;20.910;2023-06-26T05:43:45;100124.20;;;25.11;46.67
69221;BME280;56331;51.992;20.910;2023-06-26T05:46:12;100123.38;;;25.10;46.80
69221;BME280;56331;51.992;20.910;2023-06-26T05:48:39;100119.79;;;25.10;46.87
69221;BME280;56331;51.992;20.910;2023-06-26T05:51:06;100117.00;;;25.10;46.88
69221;BME280;56331;51.992;20.910;2023-06-26T05:53:33;100116.41;;;25.10;46.98
69221;BME280;56331;51.992;20.910;2023-06-26T05:56:00;100115.61;;;25.10;46.99
69221;BME280;56331;51.992;20.910;2023-06-26T05:58:26;100111.42;;;25.10;47.01
69221;BME280;56331;51.992;20.910;2023-06-26T06:00:54;100107.25;;;25.10;47.01
69221;BME280;56331;51.992;20.910;2023-06-26T06:03:20;100111.42;;;25.10;47.03
69221;BME280;56331;51.992;20.910;2023-06-26T06:05:46;100112.82;;;25.10;47.06
69221;BME280;56331;51.992;20.910;2023-06-26T06:08:13;100112.62;;;25.09;47.17
69221;BME280;56331;51.992;20.910;2023-06-26T06:10:40;100104.46;;;25.10;47.17
69221;BME280;56331;51.992;20.910;2023-06-26T06:13:06;100105.64;;;25.09;47.16
69221;BME280;56331;51.992;20.910;2023-06-26T06:15:33;100104.84;;;25.08;47.17
69221;BME280;56331;51.992;20.910;2023-06-26T06:17:59;100106.24;;;25.08;47.24
69221;BME280;56331;51.992;20.910;2023-06-26T06:20:25;100101.83;;;25.07;47.29
69221;BME280;56331;51.992;20.910;2023-06-26T06:22:54;100104.61;;;25.07;47.24
69221;BME280;56331;51.992;20.910;2023-06-26T06:25:20;100102.42;;;25.07;47.26
69221;BME280;56331;51.992;20.910;2023-06-26T06:27:47;100106.59;;;25.07;47.28
69221;BME280;56331;51.992;20.910;2023-06-26T06:30:13;100105.20;;;25.07;47.33
69221;BME280;56331;51.992;20.910;2023-06-26T06:32:40;100098.63;;;25.05;47.38
69221;BME280;56331;51.992;20.910;2023-06-26T06:35:07;100107.78;;;25.06;47.40
69221;BME280;56331;51.992;20.910;2023-06-26T06:37:38;100101.02;;;25.07;47.34
69221;BME280;56331;51.992;20.910;2023-06-26T06:40:05;100108.59;;;25.06;47.32
69221;BME280;56331;51.992;20.910;2023-06-26T06:42:32;100098.03;;;25.06;47.17
69221;BME280;56331;51.992;20.910;2023-06-26T06:45:00;100098.03;;;25.06;47.00
69221;BME280;56331;51.992;20.910;2023-06-26T06:47:26;100096.40;;;25.05;47.04
69221;BME280;56331;51.992;20.910;2023-06-26T06:49:52;100096.40;;;25.05;46.95
69221;BME280;56331;51.992;20.910;2023-06-26T06:52:19;100094.00;;;25.03;47.09
69221;BME280;56331;51.992;20.910;2023-06-26T06:54:54;100094.00;;;25.03;47.08
69221;BME280;56331;51.992;20.910;2023-06-26T06:57:21;100094.00;;;25.03;47.09
69221;BME280;56331;51.992;20.910;2023-06-26T06:59:48;100093.20;;;25.03;47.17
69221;BME280;56331;51.992;20.910;2023-06-26T07:02:16;100094.00;;;25.03;47.13
69221;BME280;56331;51.992;20.910;2023-06-26T07:04:43;100094.80;;;25.04;47.36
69221;BME280;56331;51.992;20.910;2023-06-26T07:07:10;100092.81;;;25.04;47.46
69221;BME280;56331;51.992;20.910;2023-06-26T07:09:36;100096.55;;;25.02;47.62
69221;BME280;56331;51.992;20.910;2023-06-26T07:12:03;100097.94;;;25.02;47.06
69221;BME280;56331;51.992;20.910;2023-06-26T07:14:30;100095.98;;;25.03;47.07
69221;BME280;56331;51.992;20.910;2023-06-26T07:16:56;100095.55;;;25.01;47.39
69221;BME280;56331;51.992;20.910;2023-06-26T07:19:23;100095.30;;;25.00;47.48
69221;BME280;56331;51.992;20.910;2023-06-26T07:21:49;100094.00;;;24.94;47.59
69221;BME280;56331;51.992;20.910;2023-06-26T07:24:16;100094.95;;;24.92;47.95
69221;BME280;56331;51.992;20.910;2023-06-26T07:26:43;100092.31;;;24.89;47.87
69221;BME280;56331;51.992;20.910;2023-06-26T07:29:09;100092.16;;;24.92;48.01
69221;BME280;56331;51.992;20.910;2023-06-26T07:31:35;100091.57;;;24.92;48.22
69221;BME280;56331;51.992;20.910;2023-06-26T07:34:02;100090.27;;;24.96;48.11
69221;BME280;56331;51.992;20.910;2023-06-26T07:36:28;100097.89;;;24.99;48.09
69221;BME280;56331;51.992;20.910;2023-06-26T07:38:55;100093.55;;;25.01;48.29
69221;BME280;56331;51.992;20.910;2023-06-26T07:41:21;100086.23;;;25.03;48.44
69221;BME280;56331;51.992;20.910;2023-06-26T07:43:48;100087.09;;;25.07;48.55
69221;BME280;56331;51.992;20.910;2023-06-26T07:46:14;100088.33;;;25.09;48.63
69221;BME280;56331;51.992;20.910;2023-06-26T07:48:41;100086.58;;;25.11;48.68
69221;BME280;56331;51.992;20.910;2023-06-26T07:51:07;100086.64;;;25.15;48.84
69221;BME280;56331;51.992;20.910;2023-06-26T07:53:33;100084.91;;;25.16;48.97
69221;BME280;56331;51.992;20.910;2023-06-26T07:56:00;100093.12;;;25.19;48.80
69221;BME280;56331;51.992;20.910;2023-06-26T07:58:27;100083.78;;;25.21;49.04
69221;BME280;56331;51.992;20.910;2023-06-26T08:00:53;100074.27;;;25.22;48.94
69221;BME280;56331;51.992;20.910;2023-06-26T08:03:20;100087.25;;;25.24;49.03
69221;BME280;56331;51.992;20.910;2023-06-26T08:05:51;100087.66;;;25.26;49.02
69221;BME280;56331;51.992;20.910;2023-06-26T08:08:21;100086.70;;;25.28;49.34
69221;BME280;56331;51.992;20.910;2023-06-26T08:10:48;100087.15;;;25.30;49.09
69221;BME280;56331;51.992;20.910;2023-06-26T08:13:14;100084.36;;;25.30;49.29
69221;BME280;56331;51.992;20.910;2023-06-26T08:15:41;100084.00;;;25.31;49.12
69221;BME280;56331;51.992;20.910;2023-06-26T08:18:07;100082.45;;;25.34;49.12
69221;BME280;56331;51.992;20.910;2023-06-26T08:20:34;100084.05;;;25.35;49.15
69221;BME280;56331;51.992;20.910;2023-06-26T08:23:04;100082.66;;;25.35;49.13
69221;BME280;56331;51.992;20.910;2023-06-26T08:25:31;100083.90;;;25.38;49.37
69221;BME280;56331;51.992;20.910;2023-06-26T08:27:57;100076.93;;;25.38;48.88
69221;BME280;56331;51.992;20.910;2023-06-26T08:30:24;100078.53;;;25.39;48.61
69221;BME280;56331;51.992;20.910;2023-06-26T08:32:53;100085.73;;;25.40;48.33
69221;BME280;56331;51.992;20.910;2023-06-26T08:35:19;100080.16;;;25.40;48.24
69221;BME280;56331;51.992;20.910;2023-06-26T08:37:45;100077.58;;;25.41;48.26
69221;BME280;56331;51.992;20.910;2023-06-26T08:40:12;100073.19;;;25.40;48.05
69221;BME280;56331;51.992;20.910;2023-06-26T08:42:40;100079.77;;;25.41;47.90
69221;BME280;56331;51.992;20.910;2023-06-26T08:57:52;100071.81;;;25.53;47.89
69221;BME280;56331;51.992;20.910;2023-06-26T09:00:20;100066.75;;;25.49;48.04
69221;BME280;56331;51.992;20.910;2023-06-26T09:02:46;100064.36;;;25.47;48.43
69221;BME280;56331;51.992;20.910;2023-06-26T09:05:13;100058.55;;;25.46;48.01
69221;BME280;56331;51.992;20.910;2023-06-26T09:07:39;100063.77;;;25.48;47.78
69221;BME280;56331;51.992;20.910;2023-06-26T09:10:07;100062.57;;;25.49;47.65
69221;BME280;56331;51.992;20.910;2023-06-26T09:12:34;100070.34;;;25.49;47.72
69221;BME280;56331;51.992;20.910;2023-06-26T09:15:01;100061.18;;;25.49;47.24
69221;BME280;56331;51.992;20.910;2023-06-26T09:17:30;100058.83;;;25.51;47.17
69221;BME280;56331;51.992;20.910;2023-06-26T09:19:56;100058.67;;;25.53;47.05
69221;BME280;56331;51.992;20.910;2023-06-26T09:22:23;100059.86;;;25.52;46.71
69221;BME280;56331;51.992;20.910;2023-06-26T09:24:50;100060.70;;;25.57;46.03
69221;BME280;56331;51.992;20.910;2023-06-26T09:27:18;100057.17;;;25.60;45.23
69221;BME280;56331;51.992;20.910;2023-06-26T09:29:48;100047.05;;;25.61;44.69
69221;BME280;56331;51.992;20.910;2023-06-26T09:32:14;100058.41;;;25.62;44.90
69221;BME280;56331;51.992;20.910;2023-06-26T09:34:42;100048.64;;;25.62;44.84
69221;BME280;56331;51.992;20.910;2023-06-26T09:37:13;100056.21;;;25.62;44.81
69221;BME280;56331;51.992;20.910;2023-06-26T09:39:40;100056.00;;;25.61;44.79
69221;BME280;56331;51.992;20.910;2023-06-26T09:42:08;100053.81;;;25.60;44.77
69221;BME280;56331;51.992;20.910;2023-06-26T09:44:35;100046.84;;;25.60;44.64
69221;BME280;56331;51.992;20.910;2023-06-26T09:47:02;100048.44;;;25.61;44.65
69221;BME280;56331;51.992;20.910;2023-06-26T09:49:32;100059.59;;;25.61;44.59
69221;BME280;56331;51.992;20.910;2023-06-26T09:52:00;100057.01;;;25.62;44.55
69221;BME280;56331;51.992;20.910;2023-06-26T09:54:28;100062.59;;;25.62;44.69
69221;BME280;56331;51.992;20.910;2023-06-26T09:57:07;100055.25;;;25.64;46.17
69221;BME280;56331;51.992;20.910;2023-06-26T09:59:34;100046.49;;;25.65;44.41
69221;BME280;56331;51.992;20.910;2023-06-26T10:02:00;100042.54;;;25.66;44.48
69221;BME280;56331;51.992;20.910;2023-06-26T10:04:27;100044.53;;;25.66;44.75
69221;BME280;56331;51.992;20.910;2023-06-26T10:06:58;100049.72;;;25.67;44.76
69221;BME280;56331;51.992;20.910;2023-06-26T10:09:29;100052.52;;;25.67;44.76
69221;BME280;56331;51.992;20.910;2023-06-26T10:12:03;100048.92;;;25.67;44.70
69221;BME280;56331;51.992;20.910;2023-06-26T10:14:35;100045.53;;;25.67;44.78
69221;BME280;56331;51.992;20.910;2023-06-26T10:17:04;100038.56;;;25.67;44.91
69221;BME280;56331;51.992;20.910;2023-06-26T10:19:33;100044.58;;;25.69;45.96
69221;BME280;56331;51.992;20.910;2023-06-26T10:22:03;100038.40;;;25.70;45.57
69221;BME280;56331;51.992;20.910;2023-06-26T10:24:33;100034.81;;;25.69;45.82
69221;BME280;56331;51.992;20.910;2023-06-26T10:29:46;100023.66;;;25.69;46.60
69221;BME280;56331;51.992;20.910;2023-06-26T10:32:14;100025.25;;;25.70;46.91
69221;BME280;56331;51.992;20.910;2023-06-26T10:34:42;100024.09;;;25.71;46.91
69221;BME280;56331;51.992;20.910;2023-06-26T10:37:09;100010.34;;;25.72;46.92
69221;BME280;56331;51.992;20.910;2023-06-26T10:39:52;100006.39;;;25.73;46.83
69221;BME280;56331;51.992;20.910;2023-06-26T10:42:34;100009.98;;;25.74;47.02
69221;BME280;56331;51.992;20.910;2023-06-26T10:44:58;100009.02;;;25.76;47.22
69221;BME280;56331;51.992;20.910;2023-06-26T10:47:33;100002.05;;;25.76;47.22
69221;BME280;56331;51.992;20.910;2023-06-26T10:50:23;99999.25;;;25.76;47.24
69221;BME280;56331;51.992;20.910;2023-06-26T10:55:55;100004.24;;;25.76;47.30
69221;BME280;56331;51.992;20.910;2023-06-26T11:01:23;100003.48;;;25.80;47.21
69221;BME280;56331;51.992;20.910;2023-06-26T11:03:48;100005.67;;;25.80;47.35
69221;BME280;56331;51.992;20.910;2023-06-26T11:06:19;100005.91;;;25.81;46.86
69221;BME280;56331;51.992;20.910;2023-06-26T11:08:55;100003.92;;;25.82;46.47
69221;BME280;56331;51.992;20.910;2023-06-26T11:14:10;99996.71;;;25.81;46.04
69221;BME280;56331;51.992;20.910;2023-06-26T11:16:37;99996.34;;;25.82;45.74
69221;BME280;56331;51.992;20.910;2023-06-26T11:19:04;99986.58;;;25.82;45.41
69221;BME280;56331;51.992;20.910;2023-06-26T11:21:33;99985.38;;;25.83;45.51
69221;BME280;56331;51.992;20.910;2023-06-26T11:24:00;99979.47;;;25.85;45.14
69221;BME280;56331;51.992;20.910;2023-06-26T11:26:28;99979.67;;;25.86;44.87
69221;BME280;56331;51.992;20.910;2023-06-26T11:28:55;99976.31;;;25.86;44.83
69221;BME280;56331;51.992;20.910;2023-06-26T11:31:33;99974.32;;;25.87;43.43
69221;BME280;56331;51.992;20.910;2023-06-26T11:34:06;99979.14;;;25.90;41.56
69221;BME280;56331;51.992;20.910;2023-06-26T11:36:31;99976.98;;;25.93;39.65
69221;BME280;56331;51.992;20.910;2023-06-26T11:39:00;99976.39;;;25.93;39.36
69221;BME280;56331;51.992;20.910;2023-06-26T11:41:29;99973.00;;;25.94;39.54
69221;BME280;56331;51.992;20.910;2023-06-26T11:44:01;99966.62;;;25.93;39.77
69221;BME280;56331;51.992;20.910;2023-06-26T11:46:28;99973.00;;;25.94;39.91
69221;BME280;56331;51.992;20.910;2023-06-26T11:48:55;99973.83;;;25.94;41.10
69221;BME280;56331;51.992;20.910;2023-06-26T11:51:24;99965.83;;;25.93;40.09
69221;BME280;56331;51.992;20.910;2023-06-26T11:53:50;99969.05;;;25.95;40.20
69221;BME280;56331;51.992;20.910;2023-06-26T11:56:17;99965.06;;;25.96;40.21
69221;BME280;56331;51.992;20.910;2023-06-26T11:59:01;99960.67;;;25.95;40.20
69221;BME280;56331;51.992;20.910;2023-06-26T12:01:40;99962.70;;;25.98;40.24
69221;BME280;56331;51.992;20.910;2023-06-26T12:04:11;99954.53;;;25.99;40.43
69221;BME280;56331;51.992;20.910;2023-06-26T12:06:40;99952.56;;;26.00;40.12
69221;BME280;56331;51.992;20.910;2023-06-26T12:09:09;99946.82;;;26.02;39.28
69221;BME280;56331;51.992;20.910;2023-06-26T12:11:38;99949.81;;;26.03;39.29
69221;BME280;56331;51.992;20.910;2023-06-26T12:14:07;99956.63;;;26.06;39.44
69221;BME280;56331;51.992;20.910;2023-06-26T12:16:34;99951.24;;;26.07;39.54
69221;BME280;56331;51.992;20.910;2023-06-26T12:19:04;99947.66;;;26.06;39.76
69221;BME280;56331;51.992;20.910;2023-06-26T12:24:09;99937.72;;;26.09;39.72
69221;BME280;56331;51.992;20.910;2023-06-26T12:26:36;99940.31;;;26.08;39.84
69221;BME280;56331;51.992;20.910;2023-06-26T12:29:06;99933.92;;;26.07;40.33
69221;BME280;56331;51.992;20.910;2023-06-26T12:31:34;99942.07;;;26.06;40.58
69221;BME280;56331;51.992;20.910;2023-06-26T12:34:00;99936.05;;;26.04;41.22
69221;BME280;56331;51.992;20.910;2023-06-26T12:36:27;99942.84;;;26.03;41.74
69221;BME280;56331;51.992;20.910;2023-06-26T12:38:54;99938.65;;;26.03;42.06
69221;BME280;56331;51.992;20.910;2023-06-26T12:41:25;99941.23;;;26.02;42.41
69221;BME280;56331;51.992;20.910;2023-06-26T12:43:58;99936.45;;;26.03;43.25
69221;BME280;56331;51.992;20.910;2023-06-26T12:46:36;99938.52;;;26.09;40.85
69221;BME280;56331;51.992;20.910;2023-06-26T12:49:02;99931.00;;;26.13;40.89
69221;BME280;56331;51.992;20.910;2023-06-26T12:51:29;99927.18;;;26.12;41.70
69221;BME280;56331;51.992;20.910;2023-06-26T12:53:55;99916.19;;;26.09;41.74
69221;BME280;56331;51.992;20.910;2023-06-26T12:56:22;99918.77;;;26.08;41.78
69221;BME280;56331;51.992;20.910;2023-06-26T12:58:48;99917.18;;;26.07;41.88
69221;BME280;56331;51.992;20.910;2023-06-26T13:01:14;99912.77;;;26.06;41.99
69221;BME280;56331;51.992;20.910;2023-06-26T13:03:41;99908.58;;;26.06;42.26
69221;BME280;56331;51.992;20.910;2023-06-26T13:06:09;99912.56;;;26.05;42.33
69221;BME280;56331;51.992;20.910;2023-06-26T13:08:35;99899.77;;;26.04;42.27
69221;BME280;56331;51.992;20.910;2023-06-26T13:11:03;99904.55;;;26.04;42.60
69221;BME280;56331;51.992;20.910;2023-06-26T13:13:29;99901.56;;;26.03;42.25
69221;BME280;56331;51.992;20.910;2023-06-26T13:15:56;99895.98;;;26.03;42.24
69221;BME280;56331;51.992;20.910;2023-06-26T13:18:22;99889.20;;;26.04;42.13
69221;BME280;56331;51.992;20.910;2023-06-26T13:20:48;99883.02;;;26.04;42.17
69221;BME280;56331;51.992;20.910;2023-06-26T13:23:15;99881.86;;;26.05;42.08